createdAt,value
2024-03-11T00:00:06.869Z,0.40
2024-03-11T00:02:33.778Z,0.40
2024-03-11T00:05:01.780Z,0.40
2024-03-11T00:07:34.900Z,0.40
2024-03-11T00:10:01.840Z,0.40
2024-03-11T00:12:30.541Z,0.40
2024-03-11T00:14:58.785Z,0.30
2024-03-11T00:17:25.694Z,0.50
2024-03-11T00:19:52.727Z,0.50
2024-03-11T00:22:19.792Z,0.40
2024-03-11T00:24:48.471Z,0.40
2024-03-11T00:27:15.579Z,0.40
2024-03-11T00:29:42.969Z,0.40
2024-03-11T00:32:10.964Z,0.50
2024-03-11T00:34:42.775Z,0.40
2024-03-11T00:37:13.616Z,0.40
2024-03-11T00:39:40.564Z,0.40
2024-03-11T00:42:07.554Z,0.40
2024-03-11T00:44:34.527Z,0.50
2024-03-11T00:47:01.465Z,0.40
2024-03-11T00:49:28.403Z,0.40
2024-03-11T00:51:55.375Z,0.40
2024-03-11T00:54:23.385Z,0.40
2024-03-11T00:56:52.088Z,0.40
2024-03-11T00:59:19.440Z,0.40
2024-03-11T01:01:46.468Z,0.40
2024-03-11T01:04:13.398Z,0.30
2024-03-11T01:06:42.396Z,0.40
2024-03-11T01:09:13.375Z,0.40
2024-03-11T01:11:40.455Z,0.40
2024-03-11T01:14:10.491Z,0.40
2024-03-11T01:16:38.958Z,0.40
2024-03-11T01:19:08.515Z,0.30
2024-03-11T01:21:36.406Z,0.40
2024-03-11T01:24:09.097Z,0.30
2024-03-11T01:26:36.271Z,0.40
2024-03-11T01:29:03.220Z,0.30
2024-03-11T01:31:31.319Z,0.40
2024-03-11T01:33:58.181Z,0.40
2024-03-11T01:36:25.667Z,0.40
2024-03-11T01:38:52.546Z,0.40
2024-03-11T01:41:20.364Z,0.40
2024-03-11T01:43:47.185Z,0.50
2024-03-11T01:46:14.110Z,0.40
2024-03-11T01:48:41.505Z,0.40
2024-03-11T01:51:08.701Z,0.40
2024-03-11T01:53:36.244Z,0.50
2024-03-11T01:56:04.296Z,0.40
2024-03-11T01:58:33.966Z,0.40
2024-03-11T02:01:01.433Z,0.40
2024-03-11T02:03:28.507Z,0.40
2024-03-11T02:05:56.199Z,0.50
2024-03-11T02:08:25.112Z,0.40
2024-03-11T02:10:52.948Z,0.40
2024-03-11T02:13:21.874Z,0.43
2024-03-11T02:15:48.888Z,0.40
2024-03-11T02:18:16.743Z,0.40
2024-03-11T02:20:43.662Z,0.40
2024-03-11T02:23:11.223Z,0.30
2024-03-11T02:25:38.895Z,0.50
2024-03-11T02:28:06.112Z,0.40
2024-03-11T02:30:33.900Z,0.40
2024-03-11T02:33:01.017Z,0.40
2024-03-11T02:35:28.072Z,0.40
2024-03-11T02:37:55.014Z,0.40
2024-03-11T02:40:28.489Z,0.40
2024-03-11T02:42:55.825Z,0.50
2024-03-11T02:45:26.936Z,0.40
2024-03-11T02:47:53.956Z,0.40
2024-03-11T02:50:20.967Z,0.40
2024-03-11T02:52:47.811Z,0.40
2024-03-11T02:55:19.926Z,0.40
2024-03-11T02:57:49.967Z,0.30
2024-03-11T03:00:18.194Z,0.50
2024-03-11T03:02:50.687Z,0.30
2024-03-11T03:05:17.851Z,0.40
2024-03-11T03:07:44.801Z,0.30
2024-03-11T03:10:11.815Z,0.30
2024-03-11T03:12:38.913Z,0.40
2024-03-11T03:15:06.876Z,0.50
2024-03-11T03:17:34.887Z,0.40
2024-03-11T03:20:01.940Z,0.50
2024-03-11T03:22:29.266Z,0.40
2024-03-11T03:24:56.191Z,0.50
2024-03-11T03:27:23.195Z,0.50
2024-03-11T03:29:50.257Z,0.50
2024-03-11T03:32:20.704Z,0.40
2024-03-11T03:34:47.808Z,0.60
2024-03-11T03:37:15.515Z,0.50
2024-03-11T03:39:42.855Z,0.40
2024-03-11T03:42:11.830Z,0.57
2024-03-11T03:44:38.734Z,0.40
2024-03-11T03:47:06.093Z,0.50
2024-03-11T03:49:33.860Z,0.40
2024-03-11T03:52:00.922Z,0.40
2024-03-11T03:54:28.881Z,0.40
2024-03-11T03:56:56.085Z,0.40
2024-03-11T03:59:25.996Z,0.40
2024-03-11T04:01:52.774Z,0.30
2024-03-11T04:04:21.143Z,0.40
2024-03-11T04:06:49.616Z,0.30
2024-03-11T04:09:16.499Z,0.30
2024-03-11T04:11:43.407Z,0.50
2024-03-11T04:14:12.212Z,0.60
2024-03-11T04:16:39.181Z,0.45
2024-03-11T04:19:06.873Z,0.60
2024-03-11T04:21:34.332Z,0.60
2024-03-11T04:24:01.692Z,0.60
2024-03-11T04:26:30.892Z,0.40
2024-03-11T04:28:57.828Z,0.50
2024-03-11T04:31:27.686Z,0.30
2024-03-11T04:33:56.915Z,0.40
2024-03-11T04:36:23.781Z,0.30
2024-03-11T04:38:50.700Z,0.40
2024-03-11T04:41:17.703Z,0.40
2024-03-11T04:43:44.507Z,0.47
2024-03-11T04:46:11.986Z,0.40
2024-03-11T04:48:40.069Z,0.40
2024-03-11T04:51:07.998Z,0.40
2024-03-11T04:53:35.137Z,0.50
2024-03-11T04:56:03.539Z,0.40
2024-03-11T04:58:30.473Z,0.40
2024-03-11T05:00:57.461Z,0.40
2024-03-11T05:03:25.210Z,0.40
2024-03-11T05:05:53.259Z,0.52
2024-03-11T05:08:21.210Z,0.40
2024-03-11T05:10:48.275Z,0.38
2024-03-11T05:13:15.730Z,0.40
2024-03-11T05:15:48.960Z,0.40
2024-03-11T05:18:17.149Z,0.40
2024-03-11T05:20:44.262Z,0.30
2024-03-11T05:23:11.160Z,0.40
2024-03-11T05:25:37.958Z,0.40
2024-03-11T05:28:05.140Z,0.40
2024-03-11T05:30:32.036Z,0.40
2024-03-11T05:32:59.464Z,0.40
2024-03-11T05:35:27.016Z,0.30
2024-03-11T05:37:55.908Z,0.50
2024-03-11T05:40:24.563Z,0.40
2024-03-11T05:42:51.514Z,0.32
2024-03-11T05:45:18.498Z,0.40
2024-03-11T05:47:47.097Z,0.40
2024-03-11T05:50:15.784Z,0.40
2024-03-11T05:52:47.062Z,0.50
2024-03-11T05:55:14.308Z,0.40
2024-03-11T05:57:42.721Z,0.40
2024-03-11T06:00:19.222Z,0.40
2024-03-11T06:02:46.808Z,0.40
2024-03-11T06:05:14.405Z,0.40
2024-03-11T06:07:43.364Z,0.40
2024-03-11T06:10:10.584Z,0.43
2024-03-11T06:12:37.456Z,0.40
2024-03-11T06:15:04.596Z,0.50
2024-03-11T06:17:31.886Z,0.50
2024-03-11T06:19:59.569Z,0.40
2024-03-11T06:22:28.659Z,0.47
2024-03-11T06:24:56.073Z,0.40
2024-03-11T06:27:23.692Z,0.40
2024-03-11T06:29:50.688Z,0.40
2024-03-11T06:32:18.947Z,0.50
2024-03-11T06:34:46.603Z,0.50
2024-03-11T06:37:13.726Z,0.47
2024-03-11T06:39:41.021Z,0.40
2024-03-11T06:42:08.904Z,0.47
2024-03-11T06:44:40.716Z,0.40
2024-03-11T06:47:13.012Z,0.50
2024-03-11T06:49:40.300Z,0.50
2024-03-11T06:52:08.572Z,0.40
2024-03-11T06:54:37.302Z,0.32
2024-03-11T06:57:06.895Z,0.40
2024-03-11T06:59:34.049Z,0.60
2024-03-11T07:02:00.975Z,0.90
2024-03-11T07:04:27.772Z,1.80
2024-03-11T07:06:54.628Z,2.00
2024-03-11T07:09:21.543Z,1.90
2024-03-11T07:11:48.680Z,1.50
2024-03-11T07:14:16.107Z,1.02
2024-03-11T07:16:44.265Z,0.85
2024-03-11T07:19:11.667Z,1.00
2024-03-11T07:21:40.551Z,1.30
2024-03-11T07:24:08.142Z,1.00
2024-03-11T07:26:36.036Z,0.80
2024-03-11T07:29:03.659Z,0.70
2024-03-11T07:31:31.402Z,0.50
2024-03-11T07:33:59.142Z,0.60
2024-03-11T07:36:27.281Z,0.70
2024-03-11T07:38:55.926Z,0.50
2024-03-11T07:41:25.893Z,0.60
2024-03-11T07:43:53.400Z,0.50
2024-03-11T07:46:20.930Z,0.60
2024-03-11T07:48:47.882Z,0.50
2024-03-11T07:51:15.030Z,0.40
2024-03-11T07:53:41.901Z,0.50
2024-03-11T07:56:10.449Z,0.50
2024-03-11T07:58:37.962Z,0.40
2024-03-11T08:01:05.424Z,0.40
2024-03-11T08:03:32.443Z,0.40
2024-03-11T08:06:00.211Z,0.50
2024-03-11T08:08:28.087Z,0.40
2024-03-11T08:10:55.506Z,0.40
2024-03-11T08:13:22.753Z,0.40
2024-03-11T08:15:50.614Z,0.40
2024-03-11T08:18:18.124Z,0.40
2024-03-11T08:20:45.582Z,0.40
2024-03-11T08:23:12.885Z,0.40
2024-03-11T08:25:46.524Z,0.40
2024-03-11T08:28:16.412Z,0.40
2024-03-11T08:30:44.757Z,0.50
2024-03-11T08:33:13.902Z,0.40
2024-03-11T08:35:45.635Z,0.50
2024-03-11T08:38:14.523Z,0.50
2024-03-11T08:40:41.586Z,0.40
2024-03-11T08:43:09.086Z,0.40
2024-03-11T08:45:36.129Z,0.60
2024-03-11T08:48:03.426Z,0.50
2024-03-11T08:50:30.472Z,0.60
2024-03-11T08:52:57.345Z,0.60
2024-03-11T08:55:24.635Z,0.60
2024-03-11T08:57:51.602Z,0.50
2024-03-11T09:00:19.993Z,0.50
2024-03-11T09:02:47.814Z,0.50
2024-03-11T09:05:19.057Z,0.50
2024-03-11T09:07:47.475Z,0.60
2024-03-11T09:10:18.234Z,0.60
2024-03-11T09:12:46.280Z,0.60
2024-03-11T09:15:17.034Z,0.50
2024-03-11T09:17:47.300Z,0.60
2024-03-11T09:20:18.384Z,0.45
2024-03-11T09:22:54.433Z,0.50
2024-03-11T09:25:26.947Z,0.50
2024-03-11T09:28:05.914Z,0.60
2024-03-11T09:30:38.049Z,0.50
2024-03-11T09:33:06.620Z,0.52
2024-03-11T09:35:33.962Z,0.60
2024-03-11T09:38:01.727Z,0.50
2024-03-11T09:40:30.104Z,0.50
2024-03-11T09:43:00.002Z,0.60
2024-03-11T09:45:31.134Z,0.60
2024-03-11T09:48:00.863Z,0.60
2024-03-11T09:50:34.773Z,0.60
2024-03-11T09:53:05.359Z,0.60
2024-03-11T09:55:37.184Z,0.50
2024-03-11T09:58:13.577Z,0.57
2024-03-11T10:00:50.380Z,0.50
2024-03-11T10:03:23.841Z,0.60
2024-03-11T10:06:08.902Z,0.73
2024-03-11T10:08:37.062Z,0.60
2024-03-11T10:11:22.004Z,0.80
2024-03-11T10:13:53.366Z,0.82
2024-03-11T10:16:28.982Z,0.85
2024-03-11T10:19:15.688Z,0.60
2024-03-11T10:21:44.764Z,0.60
2024-03-11T10:24:15.802Z,0.60
2024-03-11T10:26:43.226Z,0.70
2024-03-11T10:29:18.133Z,0.70
2024-03-11T10:31:46.917Z,0.60
2024-03-11T10:34:22.153Z,0.60
2024-03-11T10:36:57.342Z,0.40
2024-03-11T10:39:24.503Z,0.70
2024-03-11T10:41:52.723Z,0.70
2024-03-11T10:44:30.569Z,0.80
2024-03-11T10:47:23.401Z,0.60
2024-03-11T10:49:55.191Z,0.90
2024-03-11T10:52:24.653Z,0.70
2024-03-11T10:57:36.828Z,0.80
2024-03-11T11:00:31.099Z,0.80
2024-03-11T11:03:09.566Z,0.80
2024-03-11T11:05:52.207Z,0.70
2024-03-11T11:08:31.088Z,0.80
2024-03-11T11:11:04.218Z,1.00
2024-03-11T11:13:34.400Z,0.70
2024-03-11T11:16:04.649Z,0.70
2024-03-11T11:18:40.264Z,0.70
2024-03-11T11:21:12.365Z,0.80
2024-03-11T11:23:41.778Z,0.50
2024-03-11T11:26:08.844Z,0.50
2024-03-11T11:28:40.889Z,0.60
2024-03-11T11:31:27.946Z,0.50
2024-03-11T11:33:58.232Z,0.60
2024-03-11T11:36:31.687Z,0.60
2024-03-11T11:39:21.502Z,0.60
2024-03-11T11:41:54.374Z,0.60
2024-03-11T11:44:29.580Z,0.60
2024-03-11T11:47:06.497Z,0.57
2024-03-11T11:49:41.553Z,0.60
2024-03-11T11:52:12.154Z,0.60
2024-03-11T11:54:39.728Z,0.70
2024-03-11T11:57:11.406Z,0.50
2024-03-11T11:59:39.471Z,0.60
2024-03-11T12:02:16.395Z,0.70
2024-03-11T12:05:04.230Z,0.50
2024-03-11T12:07:39.239Z,0.70
2024-03-11T12:10:07.544Z,0.65
2024-03-11T12:12:40.523Z,0.50
2024-03-11T12:15:07.914Z,0.60
2024-03-11T12:17:35.076Z,0.70
2024-03-11T12:20:25.264Z,0.60
2024-03-11T12:22:53.641Z,0.50
2024-03-11T12:25:20.707Z,0.73
2024-03-11T12:27:54.598Z,0.70
2024-03-11T12:30:28.976Z,0.60
2024-03-11T12:32:59.562Z,0.50
2024-03-11T12:35:30.380Z,0.70
2024-03-11T12:38:02.766Z,0.70
2024-03-11T12:40:31.194Z,0.60
2024-03-11T12:43:01.621Z,0.50
2024-03-11T12:45:44.011Z,0.60
2024-03-11T12:48:14.458Z,0.50
2024-03-11T12:50:47.054Z,0.50
2024-03-11T12:53:15.242Z,0.50
2024-03-11T12:55:45.858Z,0.50
2024-03-11T12:58:17.695Z,0.50
2024-03-11T13:00:48.887Z,0.50
2024-03-11T13:03:20.178Z,0.50
2024-03-11T13:05:56.554Z,0.50
2024-03-11T13:08:24.901Z,0.60
2024-03-11T13:11:10.827Z,0.65
2024-03-11T13:13:42.460Z,0.70
2024-03-11T13:16:11.496Z,0.80
2024-03-11T13:18:42.415Z,0.70
2024-03-11T13:21:10.087Z,0.60
2024-03-11T13:23:44.343Z,0.50
2024-03-11T13:26:14.084Z,0.50
2024-03-11T13:28:41.565Z,0.60
2024-03-11T13:31:14.056Z,0.60
2024-03-11T13:33:45.735Z,0.70
2024-03-11T13:36:14.303Z,0.50
2024-03-11T13:38:42.398Z,0.70
2024-03-11T13:41:10.112Z,0.60
2024-03-11T13:43:40.899Z,0.40
2024-03-11T13:46:14.125Z,0.60
2024-03-11T13:48:42.792Z,0.50
2024-03-11T13:51:11.259Z,0.50
2024-03-11T13:53:38.185Z,0.50
2024-03-11T13:56:07.070Z,0.47
2024-03-11T13:58:34.094Z,0.63
2024-03-11T14:01:01.868Z,0.50
2024-03-11T14:03:29.492Z,0.70
2024-03-11T14:05:58.377Z,0.60
2024-03-11T14:08:25.531Z,0.40
2024-03-11T14:10:52.804Z,0.50
2024-03-11T14:13:19.827Z,0.50
2024-03-11T14:15:47.054Z,0.50
2024-03-11T14:18:15.126Z,0.50
2024-03-11T14:20:42.345Z,0.50
2024-03-11T14:23:10.835Z,0.60
2024-03-11T14:25:38.683Z,0.60
2024-03-11T14:28:07.387Z,0.50
2024-03-11T14:30:39.022Z,0.50
2024-03-11T14:33:09.041Z,0.50
2024-03-11T14:35:37.580Z,0.60
2024-03-11T14:38:04.739Z,0.60
2024-03-11T14:40:42.925Z,0.50
2024-03-11T14:43:12.077Z,0.60
2024-03-11T14:45:40.728Z,0.70
2024-03-11T14:48:16.020Z,0.65
2024-03-11T14:50:47.740Z,0.70
2024-03-11T14:53:15.376Z,0.70
2024-03-11T14:55:43.557Z,0.70
2024-03-11T14:58:12.480Z,0.60
2024-03-11T15:00:48.168Z,0.50
2024-03-11T15:03:16.643Z,0.60
2024-03-11T15:05:47.702Z,0.50
2024-03-11T15:08:16.725Z,0.70
2024-03-11T15:10:45.805Z,0.80
2024-03-11T15:13:15.724Z,0.70
2024-03-11T15:15:46.095Z,0.80
2024-03-11T15:18:15.454Z,0.75
2024-03-11T15:20:49.752Z,0.60
2024-03-11T15:23:25.946Z,0.60
2024-03-11T15:25:55.022Z,0.55
2024-03-11T15:28:22.109Z,0.75
2024-03-11T15:30:52.432Z,0.70
2024-03-11T15:33:20.588Z,0.70
2024-03-11T15:35:50.336Z,0.60
2024-03-11T15:38:21.915Z,0.60
2024-03-11T15:40:50.242Z,0.70
2024-03-11T15:43:17.556Z,0.60
2024-03-11T15:45:46.277Z,0.60
2024-03-11T15:48:13.991Z,0.60
2024-03-11T15:50:41.379Z,0.60
2024-03-11T15:53:19.335Z,0.60
2024-03-11T15:55:47.763Z,0.60
2024-03-11T15:58:14.986Z,0.60
2024-03-11T16:00:45.882Z,0.60
2024-03-11T16:03:14.929Z,0.50
2024-03-11T16:05:42.432Z,0.50
2024-03-11T16:08:21.054Z,0.50
2024-03-11T16:10:49.576Z,0.60
2024-03-11T16:13:16.716Z,0.50
2024-03-11T16:15:44.306Z,0.47
2024-03-11T16:18:13.986Z,0.60
2024-03-11T16:20:42.164Z,0.70
2024-03-11T16:23:09.935Z,0.63
2024-03-11T16:25:36.978Z,0.50
2024-03-11T16:28:08.635Z,0.60
2024-03-11T16:30:36.004Z,0.60
2024-03-11T16:33:04.023Z,0.70
2024-03-11T16:35:37.990Z,0.70
2024-03-11T16:38:10.465Z,0.60
2024-03-11T16:40:38.190Z,0.63
2024-03-11T16:43:11.467Z,0.70
2024-03-11T16:45:43.124Z,0.50
2024-03-11T16:48:12.124Z,0.60
2024-03-11T16:50:46.430Z,0.60
2024-03-11T16:53:15.226Z,0.60
2024-03-11T16:55:43.216Z,0.60
2024-03-11T16:58:14.916Z,0.60
2024-03-11T17:00:43.845Z,0.73
2024-03-11T17:03:11.182Z,0.60
2024-03-11T17:05:41.175Z,0.60
2024-03-11T17:08:15.685Z,0.70
2024-03-11T17:10:45.985Z,0.55
2024-03-11T17:13:13.908Z,0.60
2024-03-11T17:15:41.483Z,0.60
2024-03-11T17:18:09.127Z,0.70
2024-03-11T17:20:41.980Z,0.60
2024-03-11T17:23:12.263Z,0.80
2024-03-11T17:25:39.764Z,1.10
2024-03-11T17:28:14.040Z,0.70
2024-03-11T17:30:47.001Z,0.80
2024-03-11T17:33:19.089Z,0.80
2024-03-11T17:35:53.042Z,1.00
2024-03-11T17:38:22.912Z,0.95
2024-03-11T17:40:50.705Z,0.80
2024-03-11T17:43:20.352Z,0.80
2024-03-11T17:45:50.157Z,0.80
2024-03-11T17:48:22.447Z,0.60
2024-03-11T17:50:50.345Z,0.57
2024-03-11T17:53:18.549Z,0.50
2024-03-11T17:55:45.812Z,0.65
2024-03-11T17:58:15.759Z,0.50
2024-03-11T18:00:47.753Z,0.50
2024-03-11T18:03:16.233Z,0.60
2024-03-11T18:05:45.749Z,0.60
2024-03-11T18:08:13.351Z,0.70
2024-03-11T18:10:45.117Z,0.60
2024-03-11T18:13:15.056Z,0.60
2024-03-11T18:15:42.989Z,0.50
2024-03-11T18:18:17.674Z,0.50
2024-03-11T18:20:45.743Z,0.60
2024-03-11T18:23:14.991Z,0.50
2024-03-11T18:25:51.073Z,0.40
2024-03-11T18:28:19.306Z,0.40
2024-03-11T18:30:48.327Z,0.50
2024-03-11T18:33:15.703Z,0.40
2024-03-11T18:35:43.823Z,0.50
2024-03-11T18:38:10.882Z,0.50
2024-03-11T18:40:37.799Z,0.70
2024-03-11T18:43:06.181Z,0.70
2024-03-11T18:45:34.168Z,0.50
2024-03-11T18:48:02.401Z,0.90
2024-03-11T18:50:30.026Z,0.70
2024-03-11T18:53:00.540Z,0.60
2024-03-11T18:55:31.195Z,0.45
2024-03-11T18:57:59.919Z,0.50
2024-03-11T19:00:28.123Z,0.40
2024-03-11T19:02:58.987Z,0.30
2024-03-11T19:05:28.164Z,0.40
2024-03-11T19:07:56.061Z,0.40
2024-03-11T19:10:24.551Z,0.50
2024-03-11T19:12:53.985Z,0.60
2024-03-11T19:15:27.495Z,0.70
2024-03-11T19:17:56.023Z,0.60
2024-03-11T19:20:26.256Z,0.40
2024-03-11T19:22:54.244Z,0.40
2024-03-11T19:25:28.085Z,0.30
2024-03-11T19:27:56.921Z,0.35
2024-03-11T19:30:28.536Z,0.30
2024-03-11T19:32:57.748Z,0.40
2024-03-11T19:35:24.817Z,0.40
2024-03-11T19:38:03.753Z,0.40
2024-03-11T19:40:49.440Z,0.50
2024-03-11T19:43:29.362Z,0.40
2024-03-11T19:46:10.319Z,0.50
2024-03-11T19:49:01.958Z,0.40
2024-03-11T19:52:02.017Z,0.40
2024-03-11T19:54:47.771Z,0.60
2024-03-11T19:57:52.011Z,0.60
2024-03-11T20:00:49.899Z,0.50
2024-03-11T20:03:44.519Z,0.45
2024-03-11T20:06:49.874Z,0.40
2024-03-11T20:09:48.055Z,0.60
2024-03-11T20:12:44.475Z,0.90
2024-03-11T20:15:33.214Z,0.60
2024-03-11T20:18:37.068Z,0.70
2024-03-11T20:21:34.762Z,0.50
2024-03-11T20:24:13.615Z,0.90
2024-03-11T20:26:43.260Z,0.70
2024-03-11T20:29:31.898Z,0.68
2024-03-11T20:32:04.482Z,0.90
2024-03-11T20:34:31.433Z,0.90
2024-03-11T20:36:58.817Z,0.90
2024-03-11T20:39:25.919Z,1.20
2024-03-11T20:41:55.377Z,0.80
2024-03-11T20:44:22.514Z,0.90
2024-03-11T20:46:49.561Z,0.70
2024-03-11T20:49:18.069Z,0.60
2024-03-11T20:51:45.172Z,0.80
2024-03-11T20:54:12.144Z,0.50
2024-03-11T20:56:39.283Z,0.50
2024-03-11T20:59:06.403Z,0.40
2024-03-11T21:01:34.118Z,0.40
2024-03-11T21:04:01.284Z,0.40
2024-03-11T21:06:28.488Z,0.40
2024-03-11T21:08:55.412Z,0.30
2024-03-11T21:11:22.498Z,0.40
2024-03-11T21:13:49.596Z,0.40
2024-03-11T21:16:19.190Z,0.40
2024-03-11T21:18:48.241Z,0.60
2024-03-11T21:21:24.100Z,0.45
2024-03-11T21:24:07.672Z,0.60
2024-03-11T21:26:39.512Z,0.50
2024-03-11T21:29:09.178Z,0.50
2024-03-11T21:31:37.822Z,0.60
2024-03-11T21:34:06.436Z,0.60
2024-03-11T21:36:33.827Z,0.40
2024-03-11T21:39:01.404Z,0.60
2024-03-11T21:41:28.407Z,0.90
2024-03-11T21:43:55.331Z,0.82
2024-03-11T21:46:25.440Z,0.80
2024-03-11T21:48:52.824Z,0.90
2024-03-11T21:51:25.430Z,0.80
2024-03-11T21:53:53.089Z,0.60
2024-03-11T21:56:20.020Z,0.65
2024-03-11T21:58:46.884Z,0.60
2024-03-11T22:01:13.901Z,0.60
2024-03-11T22:03:42.767Z,0.40
2024-03-11T22:06:09.797Z,0.50
2024-03-11T22:08:38.881Z,0.50
2024-03-11T22:11:06.990Z,0.40
2024-03-11T22:13:34.025Z,0.40
2024-03-11T22:16:01.268Z,0.40
2024-03-11T22:18:29.217Z,0.50
2024-03-11T22:20:58.056Z,0.70
2024-03-11T22:23:24.885Z,0.60
2024-03-11T22:25:51.832Z,0.52
2024-03-11T22:28:19.020Z,0.50
2024-03-11T22:30:45.990Z,0.50
2024-03-11T22:33:14.049Z,0.40
2024-03-11T22:35:41.506Z,0.40
2024-03-11T22:38:08.478Z,0.40
2024-03-11T22:40:35.373Z,0.50
2024-03-11T22:43:02.437Z,0.40
2024-03-11T22:45:30.034Z,0.50
2024-03-11T22:47:58.279Z,0.80
2024-03-11T22:50:25.621Z,0.50
2024-03-11T22:52:53.859Z,0.40
2024-03-11T22:55:21.561Z,0.50
2024-03-11T22:57:48.600Z,0.60
2024-03-11T23:00:34.977Z,0.50
2024-03-11T23:03:02.456Z,0.50
2024-03-11T23:05:30.743Z,0.53
2024-03-11T23:07:59.504Z,0.60
2024-03-11T23:10:28.177Z,0.50
2024-03-11T23:12:55.805Z,0.80
2024-03-11T23:15:24.452Z,0.60
2024-03-11T23:17:51.920Z,0.60
2024-03-11T23:20:19.212Z,0.70
2024-03-11T23:22:47.000Z,0.75
2024-03-11T23:25:14.413Z,0.70
2024-03-11T23:27:41.444Z,0.70
2024-03-11T23:30:14.370Z,0.60
2024-03-11T23:32:44.451Z,1.00
2024-03-11T23:35:11.613Z,0.90
2024-03-11T23:37:38.493Z,0.70
2024-03-11T23:40:20.433Z,0.60
2024-03-11T23:42:51.162Z,0.60
2024-03-11T23:45:19.057Z,0.60
2024-03-11T23:47:50.347Z,0.60
2024-03-11T23:50:18.572Z,0.80
2024-03-11T23:52:45.563Z,0.60
2024-03-11T23:55:12.612Z,0.50
2024-03-11T23:57:39.808Z,0.60
